Race Results for…
Salinas Valley Half Marathon 2017

August 05, 2017 Results presented by Salinas Valley Half Marathon and timed by SVE Timing
Participants:
1009
Last Updated:
8/20/2017 5:23:41 PM

Results are preliminary for 5 days.
Click your name to view a video of you finishing.

Stats

Leaderboards

Jump to a Leaderboard

HALF MARATHON

Male - Overall
Bib Name Gun Elapsed Chip Elapsed Pace City Age
1 3 JUSTIN CARRANCHO 01:12:10 01:12:10 05:30 min/mile WATSONVILLE 22
2 6 JAIME GARCIA 01:17:05 01:17:03 05:52 min/mile GREENFIELD 19
3 636 ROBERT MEAD 01:17:05 01:17:03 05:52 min/mile TEMPLETON 29
Female - Overall
Bib Name Gun Elapsed Chip Elapsed Pace City Age
1 729 EVA PERRY 01:30:00 01:29:55 06:51 min/mile MONTEREY 23
2 582 ISABELA LOSCHER 01:32:54 01:32:41 07:04 min/mile LOS ANGELES 26
3 8 MONICA JO GILMORE 01:33:23 01:33:21 07:07 min/mile AROMAS 35

Overall Results

Tip: Swipe the results table to view more.
1009 entrants …
HALF MARATHON Results
Race Place Bib Name City Gun Elapsed Chip Elapsed Pace Division Div Place Age Place Age Gender Gender Place
1 3 JUSTIN CARRANCHO WATSONVILLE 01:12:10 01:12:10 05:30 min/mile HALF MARATHON 1 O/A 22 M 1
2 6 JAIME GARCIA GREENFIELD 01:17:05 01:17:03 05:52 min/mile HALF MARATHON 2 O/A 19 M 2
3 636 ROBERT MEAD TEMPLETON 01:17:05 01:17:03 05:52 min/mile HALF MARATHON 3 O/A 29 M 3
4 13 EDUARDO OROZCO KING CITY 01:18:37 01:18:35 05:59 min/mile HALF MARATHON 4 1 19 M 4
5 671 JOSE AGUSTIN MORALES KING CITY 01:18:42 01:18:40 06:00 min/mile HALF MARATHON 5 1 32 M 5
6 15 JOSE RUIZ HOLLISTER 01:19:17 01:19:17 06:03 min/mile HALF MARATHON 6 2 20 M 6
7 11 ALFREDO MEJIA SALINAS 01:19:19 01:19:18 06:03 min/mile HALF MARATHON 7 3 18 M 7
8 1003 ANDREW ALDAPE SALINAS 01:19:22 01:19:20 06:03 min/mile HALF MARATHON 8 4 18 M 8
9 2 JESUS CAMPOS FRESNO 01:20:49 01:20:47 06:10 min/mile HALF MARATHON 9 2 32 M 9
10 774 JUAN RIVERA SALINAS 01:22:22 01:22:20 06:17 min/mile HALF MARATHON 10 1 36 M 10
11 824 ALAN SAMUELS PRUNEDALE 01:22:30 01:22:27 06:17 min/mile HALF MARATHON 11 3 34 M 11
12 615 ALVARO MARTINES SEASIDE 01:22:35 01:22:32 06:18 min/mile HALF MARATHON 12 1 47 M 12
13 16 JONATHAN SALDANA SALINAS 01:22:49 01:22:47 06:19 min/mile HALF MARATHON 13 5 20 M 13
14 1 ADAM ALNAZER SEASIDE 01:23:21 01:23:19 06:21 min/mile HALF MARATHON 14 6 19 M 14
15 1037 WILLIAM ORDAZ 01:23:25 01:23:22 06:21 min/mile HALF MARATHON 15 7 20 M 15
16 18 RUDY TOVAR SALINAS 01:23:27 01:23:24 06:21 min/mile HALF MARATHON 16 2 36 M 16
17 885 CARLOS SOTO SALINAS 01:24:09 01:24:05 06:25 min/mile HALF MARATHON 17 1 27 M 17
18 4 SERGIO CORONEL SALINAS 01:24:49 01:24:47 06:28 min/mile HALF MARATHON 18 8 19 M 18
19 1158 RYAN CRONIN PACIFIC GROVE 01:25:00 01:24:55 06:28 min/mile HALF MARATHON 19 2 26 M 19
20 795 RAYMOND RODRIGUEZ LOS BANOS 01:25:10 01:25:08 06:29 min/mile HALF MARATHON 20 1 55 M 20
21 226 TOMAS CASAS SEASIDE 01:27:06 01:27:02 06:38 min/mile HALF MARATHON 21 4 33 M 21
22 1116 CHRISTOPHER DELGADO ATLANTA 01:27:14 01:27:09 06:39 min/mile HALF MARATHON 22 1 43 M 22
23 1019 EPIFANIO RIOS SOLEDAD 01:27:40 01:27:37 06:41 min/mile HALF MARATHON 23 9 17 M 23
24 1005 ANDREW ALONZO SALINAS 01:28:37 01:28:36 06:45 min/mile HALF MARATHON 24 10 17 M 24
25 400 DILLON GLASSER MONTEREY 01:28:55 01:28:51 06:46 min/mile HALF MARATHON 25 3 26 M 25
26 976 ANDREW WARE MONTEREY 01:29:10 01:29:07 06:48 min/mile HALF MARATHON 26 3 38 M 26
27 295 SEAN CURRY SALINAS 01:29:13 01:29:10 06:48 min/mile HALF MARATHON 27 2 48 M 27
28 1141 KEITH HEDLUND 01:29:25 01:29:23 06:49 min/mile HALF MARATHON 28 1 54 M 28
29 1147 JOEL FENLASON SANTA MARIA 01:29:34 01:29:31 06:50 min/mile HALF MARATHON 29 2 43 M 29
30 729 EVA PERRY MONTEREY 01:30:00 01:29:55 06:51 min/mile HALF MARATHON 30 O/A 23 F 1
31 1008 THOMAS LUNDY MARINA 01:30:05 01:29:56 06:51 min/mile HALF MARATHON 31 1 15 M 30
32 1014 ADAM SHAPIRO PACIFIC GROVE 01:30:04 01:29:59 06:52 min/mile HALF MARATHON 32 11 16 M 31
33 546 DAVID LAWSON SAN JOSE 01:30:41 01:30:32 06:54 min/mile HALF MARATHON 33 4 39 M 32
34 579 ROBERT LOPEZ SALINAS 01:31:10 01:31:04 06:57 min/mile HALF MARATHON 34 2 51 M 33
35 763 GREGORIO REYES PEBBLE BEACH 01:31:16 01:31:10 06:57 min/mile HALF MARATHON 35 3 40 M 34
36 631 SEAN MCCORMICK PASO ROBLES 01:32:27 01:32:23 07:03 min/mile HALF MARATHON 36 3 53 M 35
37 582 ISABELA LOSCHER LOS ANGELES 01:32:54 01:32:41 07:04 min/mile HALF MARATHON 37 O/A 26 F 2
38 1012 CHRISTIAN DABLER PLYMOUTH 01:33:03 01:32:56 07:05 min/mile HALF MARATHON 38 12 16 M 36
39 1034 HARRY FOX 01:33:29 01:33:20 07:07 min/mile HALF MARATHON 39 13 17 M 37
40 8 MONICA JO GILMORE AROMAS 01:33:23 01:33:21 07:07 min/mile HALF MARATHON 40 O/A 35 F 3
41 730 MELISSA PETERSON SALINAS 01:33:36 01:33:33 07:08 min/mile HALF MARATHON 41 1 33 F 4
42 753 ALEJANDRO RAMIREZ HAYWARD 01:34:39 01:34:36 07:13 min/mile HALF MARATHON 42 4 52 M 38
43 152 VINCENT BARRIENTOS SALINAS 01:34:41 01:34:37 07:13 min/mile HALF MARATHON 43 5 34 M 39
44 1103 BRIAN YANNUTZ MONTEREY 01:35:01 01:34:53 07:14 min/mile HALF MARATHON 44 4 29 M 40
45 275 SERGIO CORONEL SALINAS 01:35:37 01:35:25 07:17 min/mile HALF MARATHON 45 3 48 M 41
46 317 PAUL DICKSON MORGAN HILL 01:35:37 01:35:28 07:17 min/mile HALF MARATHON 46 5 52 M 42
47 786 EVAN RODRIGUEZ SALINAS 01:35:40 01:35:30 07:17 min/mile HALF MARATHON 47 6 31 M 43
48 592 RYAN MAEDA SALINAS 01:36:05 01:35:59 07:19 min/mile HALF MARATHON 48 4 41 M 44
49 561 JEFFREY LIN MENLO PARK 01:36:33 01:36:16 07:20 min/mile HALF MARATHON 49 5 26 M 45
50 657 JOHN MINTZ HERCULES 01:36:37 01:36:30 07:21 min/mile HALF MARATHON 50 6 51 M 46
1009 entrants …

Winners

Tip: Slide the results table left and right to view more.
Overall
Race Place Bib Name City Gun Elapsed Chip Elapsed Pace Division Div Place Age Place Age Gender Gender Place
1 3 JUSTIN CARRANCHO WATSONVILLE 01:12:10 01:12:10 05:30 min/mile HALF MARATHON 1 O/A 22 M 1
2 6 JAIME GARCIA GREENFIELD 01:17:05 01:17:03 05:52 min/mile HALF MARATHON 2 O/A 19 M 2
3 636 ROBERT MEAD TEMPLETON 01:17:05 01:17:03 05:52 min/mile HALF MARATHON 3 O/A 29 M 3
30 729 EVA PERRY MONTEREY 01:30:00 01:29:55 06:51 min/mile HALF MARATHON 30 O/A 23 F 1
37 582 ISABELA LOSCHER LOS ANGELES 01:32:54 01:32:41 07:04 min/mile HALF MARATHON 37 O/A 26 F 2
40 8 MONICA JO GILMORE AROMAS 01:33:23 01:33:21 07:07 min/mile HALF MARATHON 40 O/A 35 F 3
12 - 15
Race Place Bib Name City Gun Elapsed Chip Elapsed Pace Division Div Place Age Place Age Gender Gender Place
31 1008 THOMAS LUNDY MARINA 01:30:05 01:29:56 06:51 min/mile HALF MARATHON 31 1 15 M 30
52 1035 OLIVER FOX TEIGNMOUTH 01:36:45 01:36:37 07:22 min/mile HALF MARATHON 52 2 15 M 47
149 1001 LUIS ALBA SOLEDAD 01:53:33 01:53:11 08:38 min/mile HALF MARATHON 149 3 15 M 118
268 1004 ZACHARY EVANS SALINAS 02:08:25 02:08:04 09:46 min/mile HALF MARATHON 268 4 13 M 186
344 1002 VANESSA HOFFMAN MONTEREY 02:17:05 02:16:23 10:24 min/mile HALF MARATHON 344 1 12 F 120
466 1010 GRACIE GOLDSMITH-DING IONE 02:31:58 02:31:39 11:34 min/mile HALF MARATHON 466 2 15 F 203
716 1009 JENNA KAUPIE GONZALES 03:44:22 03:43:13 17:02 min/mile HALF MARATHON 716 3 15 F 390
16 - 20
Race Place Bib Name City Gun Elapsed Chip Elapsed Pace Division Div Place Age Place Age Gender Gender Place
4 13 EDUARDO OROZCO KING CITY 01:18:37 01:18:35 05:59 min/mile HALF MARATHON 4 1 19 M 4
6 15 JOSE RUIZ HOLLISTER 01:19:17 01:19:17 06:03 min/mile HALF MARATHON 6 2 20 M 6
7 11 ALFREDO MEJIA SALINAS 01:19:19 01:19:18 06:03 min/mile HALF MARATHON 7 3 18 M 7
8 1003 ANDREW ALDAPE SALINAS 01:19:22 01:19:20 06:03 min/mile HALF MARATHON 8 4 18 M 8
13 16 JONATHAN SALDANA SALINAS 01:22:49 01:22:47 06:19 min/mile HALF MARATHON 13 5 20 M 13
373 1017 MIA MARTINEZ LOS ANGELES 02:21:24 02:20:59 10:45 min/mile HALF MARATHON 373 1 16 F 139
577 1016 KAYLEE BENTING SALINAS 02:52:09 02:51:37 13:06 min/mile HALF MARATHON 577 2 16 F 284
721 1027 NANCY GONZALEZ SALINAS 03:45:30 03:44:58 17:10 min/mile HALF MARATHON 721 3 18 F 394
21 - 24
Race Place Bib Name City Gun Elapsed Chip Elapsed Pace Division Div Place Age Place Age Gender Gender Place
82 565 ABRAHAM LOPEZ GREENFIELD 01:42:06 01:42:04 07:47 min/mile HALF MARATHON 82 1 22 M 73
141 490 LUIS JAIME LANDEROS SALINAS 01:52:50 01:52:12 08:33 min/mile HALF MARATHON 141 2 22 M 111
159 231 ROLAND CENTENO SEASIDE 01:54:21 01:54:06 08:42 min/mile HALF MARATHON 159 3 22 M 123
172 123 SPENSER ANDERSON REDONDO BEACH 01:55:51 01:55:09 08:47 min/mile HALF MARATHON 172 4 23 M 129
395 1110 JORGE ZARATE GONZALES 02:24:00 02:23:37 10:57 min/mile HALF MARATHON 395 5 22 M 242
92 9 BRANDI HOBSON SALINAS 01:43:51 01:43:50 07:55 min/mile HALF MARATHON 92 1 22 F 13
140 1115 KELSEY BOYLE SALINAS 01:52:21 01:52:07 08:33 min/mile HALF MARATHON 140 2 23 F 30
152 117 TAYLOR ALLEN SAN MATEO 01:53:36 01:53:28 08:39 min/mile HALF MARATHON 152 3 24 F 34
173 904 RUTH SUNG CLAREMONT 01:55:51 01:55:09 08:47 min/mile HALF MARATHON 173 4 21 F 44
188 801 MARIA ROJO KING CITY 01:58:02 01:57:38 08:58 min/mile HALF MARATHON 188 5 23 F 50
25 - 29
Race Place Bib Name City Gun Elapsed Chip Elapsed Pace Division Div Place Age Place Age Gender Gender Place
17 885 CARLOS SOTO SALINAS 01:24:09 01:24:05 06:25 min/mile HALF MARATHON 17 1 27 M 17
19 1158 RYAN CRONIN PACIFIC GROVE 01:25:00 01:24:55 06:28 min/mile HALF MARATHON 19 2 26 M 19
25 400 DILLON GLASSER MONTEREY 01:28:55 01:28:51 06:46 min/mile HALF MARATHON 25 3 26 M 25
44 1103 BRIAN YANNUTZ MONTEREY 01:35:01 01:34:53 07:14 min/mile HALF MARATHON 44 4 29 M 40
49 561 JEFFREY LIN MENLO PARK 01:36:33 01:36:16 07:20 min/mile HALF MARATHON 49 5 26 M 45
51 17 RACHEL SHIMABUKURO SALINAS 01:36:32 01:36:31 07:22 min/mile HALF MARATHON 51 1 25 F 5
73 513 COLLEEN KELLY ALTOONA 01:40:37 01:40:31 07:40 min/mile HALF MARATHON 73 2 25 F 8
84 892 KARINA STERRETT SAN FRANCISCO 01:42:19 01:42:12 07:48 min/mile HALF MARATHON 84 3 28 F 10
98 109 CHELSEA AGNELLO WATSONVILLE 01:44:22 01:44:05 07:56 min/mile HALF MARATHON 98 4 27 F 16
116 440 LYNDSAY GUTTCHEN SALINAS 01:48:03 01:47:49 08:13 min/mile HALF MARATHON 116 5 26 F 21
30 - 34
Race Place Bib Name City Gun Elapsed Chip Elapsed Pace Division Div Place Age Place Age Gender Gender Place
5 671 JOSE AGUSTIN MORALES KING CITY 01:18:42 01:18:40 06:00 min/mile HALF MARATHON 5 1 32 M 5
9 2 JESUS CAMPOS FRESNO 01:20:49 01:20:47 06:10 min/mile HALF MARATHON 9 2 32 M 9
11 824 ALAN SAMUELS PRUNEDALE 01:22:30 01:22:27 06:17 min/mile HALF MARATHON 11 3 34 M 11
21 226 TOMAS CASAS SEASIDE 01:27:06 01:27:02 06:38 min/mile HALF MARATHON 21 4 33 M 21
43 152 VINCENT BARRIENTOS SALINAS 01:34:41 01:34:37 07:13 min/mile HALF MARATHON 43 5 34 M 39
41 730 MELISSA PETERSON SALINAS 01:33:36 01:33:33 07:08 min/mile HALF MARATHON 41 1 33 F 4
104 809 AMY ROSE CASTROVILLE 01:45:47 01:45:36 08:03 min/mile HALF MARATHON 104 2 31 F 17
113 825 BEATRICE SANCHEZ GREENFIELD 01:46:56 01:46:51 08:09 min/mile HALF MARATHON 113 3 31 F 20
122 872 JONAIZA SIMBRE PACIFIC GROVE 01:48:58 01:48:43 08:17 min/mile HALF MARATHON 122 4 30 F 25
138 176 JASPREET BLEVINS MONTEREY 01:51:40 01:51:31 08:30 min/mile HALF MARATHON 138 5 31 F 29
35 - 39
Race Place Bib Name City Gun Elapsed Chip Elapsed Pace Division Div Place Age Place Age Gender Gender Place
10 774 JUAN RIVERA SALINAS 01:22:22 01:22:20 06:17 min/mile HALF MARATHON 10 1 36 M 10
16 18 RUDY TOVAR SALINAS 01:23:27 01:23:24 06:21 min/mile HALF MARATHON 16 2 36 M 16
26 976 ANDREW WARE MONTEREY 01:29:10 01:29:07 06:48 min/mile HALF MARATHON 26 3 38 M 26
33 546 DAVID LAWSON SAN JOSE 01:30:41 01:30:32 06:54 min/mile HALF MARATHON 33 4 39 M 32
60 901 GREGORY SU SAN JOSE 01:38:27 01:38:18 07:30 min/mile HALF MARATHON 60 5 36 M 55
90 121 MARISOL ALVAREZ CASTROVILLE 01:43:48 01:43:44 07:55 min/mile HALF MARATHON 90 1 38 F 11
118 535 BETTY KWONG WATSONVILLE 01:48:32 01:48:15 08:15 min/mile HALF MARATHON 118 2 39 F 23
148 700 MAYRA OYOLA MONTEREY 01:53:28 01:53:10 08:38 min/mile HALF MARATHON 148 3 35 F 31
150 533 SABRINA KWAN FOSTER CITY 01:53:59 01:53:22 08:39 min/mile HALF MARATHON 150 4 36 F 32
156 470 CAROLINE HODGES HOLLISTER 01:53:56 01:53:44 08:40 min/mile HALF MARATHON 156 5 38 F 35
40 - 44
Race Place Bib Name City Gun Elapsed Chip Elapsed Pace Division Div Place Age Place Age Gender Gender Place
22 1116 CHRISTOPHER DELGADO ATLANTA 01:27:14 01:27:09 06:39 min/mile HALF MARATHON 22 1 43 M 22
29 1147 JOEL FENLASON SANTA MARIA 01:29:34 01:29:31 06:50 min/mile HALF MARATHON 29 2 43 M 29
35 763 GREGORIO REYES PEBBLE BEACH 01:31:16 01:31:10 06:57 min/mile HALF MARATHON 35 3 40 M 34
48 592 RYAN MAEDA SALINAS 01:36:05 01:35:59 07:19 min/mile HALF MARATHON 48 4 41 M 44
77 1112 J. MANUEL ZAVALA GREENFIELD 01:41:32 01:41:09 07:43 min/mile HALF MARATHON 77 5 42 M 68
69 349 NANCY EUBANKS TURLOCK 01:39:52 01:39:47 07:37 min/mile HALF MARATHON 69 1 40 F 7
75 981 CATHY WEIDEMANN CARMEL VALLEY 01:40:43 01:40:37 07:40 min/mile HALF MARATHON 75 2 42 F 9
91 848 MONIKA SCOTT SALINAS 01:43:57 01:43:44 07:55 min/mile HALF MARATHON 91 3 44 F 12
111 938 STEPHANIE TROST SALINAS 01:46:49 01:46:40 08:08 min/mile HALF MARATHON 111 4 41 F 19
117 173 JOLITA BISSON SALINAS 01:48:05 01:47:53 08:14 min/mile HALF MARATHON 117 5 40 F 22
45 - 49
Race Place Bib Name City Gun Elapsed Chip Elapsed Pace Division Div Place Age Place Age Gender Gender Place
12 615 ALVARO MARTINES SEASIDE 01:22:35 01:22:32 06:18 min/mile HALF MARATHON 12 1 47 M 12
27 295 SEAN CURRY SALINAS 01:29:13 01:29:10 06:48 min/mile HALF MARATHON 27 2 48 M 27
45 275 SERGIO CORONEL SALINAS 01:35:37 01:35:25 07:17 min/mile HALF MARATHON 45 3 48 M 41
56 426 JOHAN GROBLER SALINAS 01:37:43 01:37:39 07:27 min/mile HALF MARATHON 56 4 49 M 51
65 576 JORGE LOPEZ MARINA 01:39:08 01:39:03 07:33 min/mile HALF MARATHON 65 5 47 M 60
94 870 LINDA SIGNAL SANTA MARIA 01:44:02 01:43:54 07:55 min/mile HALF MARATHON 94 1 46 F 14
110 1126 CHRISTEN MANSUETTI PHOENIX 01:46:27 01:46:17 08:06 min/mile HALF MARATHON 110 2 45 F 18
132 777 SAM ROBINSON MARINA 01:50:12 01:49:58 08:23 min/mile HALF MARATHON 132 3 48 F 27
164 130 MARY APSEY SANTA BARBARA 01:54:45 01:54:22 08:43 min/mile HALF MARATHON 164 4 49 F 39
191 814 BETHANY RUTBERG PACIFIC GROVE 01:58:25 01:58:01 09:00 min/mile HALF MARATHON 191 5 48 F 52
50 - 54
Race Place Bib Name City Gun Elapsed Chip Elapsed Pace Division Div Place Age Place Age Gender Gender Place
28 1141 KEITH HEDLUND 01:29:25 01:29:23 06:49 min/mile HALF MARATHON 28 1 54 M 28
34 579 ROBERT LOPEZ SALINAS 01:31:10 01:31:04 06:57 min/mile HALF MARATHON 34 2 51 M 33
36 631 SEAN MCCORMICK PASO ROBLES 01:32:27 01:32:23 07:03 min/mile HALF MARATHON 36 3 53 M 35
42 753 ALEJANDRO RAMIREZ HAYWARD 01:34:39 01:34:36 07:13 min/mile HALF MARATHON 42 4 52 M 38
46 317 PAUL DICKSON MORGAN HILL 01:35:37 01:35:28 07:17 min/mile HALF MARATHON 46 5 52 M 42
97 183 STEPHANIE BOUQUET SALINAS 01:44:10 01:44:04 07:56 min/mile HALF MARATHON 97 1 50 F 15
175 601 JOANNIE MAITOZA SALINAS 01:56:06 01:55:20 08:48 min/mile HALF MARATHON 175 2 53 F 46
194 813 MARY RUSSELL CASTROVILLE 01:59:06 01:58:42 09:03 min/mile HALF MARATHON 194 3 53 F 53
197 843 CYNTHIA SCHROEDER CARMEL 01:59:20 01:59:00 09:05 min/mile HALF MARATHON 197 4 52 F 55
260 853 MICHELE SEIFERT CARMEL 02:07:45 02:06:56 09:41 min/mile HALF MARATHON 260 5 50 F 76
55 - 59
Race Place Bib Name City Gun Elapsed Chip Elapsed Pace Division Div Place Age Place Age Gender Gender Place
20 795 RAYMOND RODRIGUEZ LOS BANOS 01:25:10 01:25:08 06:29 min/mile HALF MARATHON 20 1 55 M 20
53 1154 ALBERTO FRAIDE SALINAS 01:37:09 01:37:05 07:24 min/mile HALF MARATHON 53 2 55 M 48
79 716 MARIO PAUDA SALINAS 01:41:55 01:41:42 07:45 min/mile HALF MARATHON 79 3 58 M 70
81 257 BRADLEY CLINTON SALINAS 01:42:05 01:42:03 07:47 min/mile HALF MARATHON 81 4 56 M 72
85 327 CLARKE DREWRY GILROY 01:42:26 01:42:17 07:48 min/mile HALF MARATHON 85 5 56 M 75
68 856 LINDA SERENO SALINAS 01:39:37 01:39:29 07:35 min/mile HALF MARATHON 68 1 57 F 6
135 498 ELLIE JOHNSON CARMEL VALLEY 01:51:29 01:51:05 08:28 min/mile HALF MARATHON 135 2 56 F 28
205 641 JANET MELAC PACIFICGROVE 02:00:04 01:59:41 09:08 min/mile HALF MARATHON 205 3 56 F 58
313 895 LINDA STIMSON SAN LUIS OBISPO 02:13:22 02:12:48 10:08 min/mile HALF MARATHON 313 4 58 F 100
332 663 OLGA MONARREZ SALINAS 02:15:10 02:14:45 10:17 min/mile HALF MARATHON 332 5 57 F 112
60 - 64
Race Place Bib Name City Gun Elapsed Chip Elapsed Pace Division Div Place Age Place Age Gender Gender Place
57 922 JERRY THOMAS SALINAS 01:37:51 01:37:48 07:27 min/mile HALF MARATHON 57 1 62 M 52
125 845 JOE SCHUMAKER SALINAS 01:49:12 01:49:00 08:19 min/mile HALF MARATHON 125 2 62 M 100
130 902 CHRISTOPHER SULLIVAN NEWARK 01:50:00 01:49:50 08:23 min/mile HALF MARATHON 130 3 60 M 105
134 321 RICHARD DOLLINS ELLICOTT CITY 01:50:46 01:50:32 08:26 min/mile HALF MARATHON 134 4 61 M 107
186 531 PAUL KUTIS SALINAS 01:57:56 01:57:24 08:57 min/mile HALF MARATHON 186 5 63 M 137
314 323 JILL DONNELLY APTOS 02:13:02 02:12:51 10:08 min/mile HALF MARATHON 314 1 60 F 101
339 846 LYDIA SCHUMAKER SALINAS 02:15:54 02:15:42 10:21 min/mile HALF MARATHON 339 2 64 F 117
405 190 MARGARET BREWINGTON APTOS 02:25:05 02:24:53 11:03 min/mile HALF MARATHON 405 3 63 F 161
464 473 FRAN HORVATH PACIFIC GROVE 02:32:02 02:31:31 11:33 min/mile HALF MARATHON 464 4 62 F 202
549 939 PAM TRUDELL GILROY 02:46:42 02:45:56 12:40 min/mile HALF MARATHON 549 5 60 F 263
65 - 69
Race Place Bib Name City Gun Elapsed Chip Elapsed Pace Division Div Place Age Place Age Gender Gender Place
80 633 BOBBY MCKEE LA SELVA BEACH 01:41:58 01:41:49 07:46 min/mile HALF MARATHON 80 1 68 M 71
281 221 ELI CARDENAS SAN JOSE 02:10:17 02:09:35 09:53 min/mile HALF MARATHON 281 2 66 M 194
284 802 TOM ROLANDER PACIFIC GROVE 02:10:42 02:10:11 09:56 min/mile HALF MARATHON 284 3 69 M 197
393 524 RUSSEL KODET SALINAS 02:23:49 02:23:24 10:56 min/mile HALF MARATHON 393 4 65 M 241
409 242 JOHNNY CHAVARRIA SALINAS 02:26:52 02:25:38 11:07 min/mile HALF MARATHON 409 5 69 M 245
209 314 LYNNE DENLEY MONTEREY 02:00:04 01:59:47 09:08 min/mile HALF MARATHON 209 1 65 F 60
251 553 BARBARA LEE MONTEREY 02:05:46 02:05:22 09:34 min/mile HALF MARATHON 251 2 66 F 74
498 919 LAURA THAYER SALINAS 02:37:59 02:37:20 12:00 min/mile HALF MARATHON 498 3 66 F 225
646 625 MARIA MATA CASTROVILLE 03:12:32 03:11:48 14:38 min/mile HALF MARATHON 646 4 67 F 336
650 634 LAURA MCMASTER MONTEREY 03:14:50 03:13:53 14:48 min/mile HALF MARATHON 650 5 67 F 340
70 - 74
Race Place Bib Name City Gun Elapsed Chip Elapsed Pace Division Div Place Age Place Age Gender Gender Place
239 280 DAVE CORTEZ SALINAS 02:04:11 02:04:03 09:28 min/mile HALF MARATHON 239 1 72 M 170
303 920 TOM THAYER SALINAS 02:12:13 02:11:43 10:03 min/mile HALF MARATHON 303 2 70 M 208
425 973 DALE WALKER SALINAS 02:27:46 02:27:20 11:14 min/mile HALF MARATHON 425 3 70 M 253
550 593 MELVIN MAEDA WILTON 02:46:46 02:45:58 12:40 min/mile HALF MARATHON 550 4 70 M 287
590 850 PHIL SCURICH MEADOW VISTA 02:55:45 02:55:33 13:24 min/mile HALF MARATHON 590 5 72 M 296
494 1136 ANTONIA SANDOVAL CASTROVILLE 02:37:53 02:37:13 12:00 min/mile HALF MARATHON 494 1 71 F 221
516 945 CAROL TURNER NEWARK 02:39:49 02:39:36 12:10 min/mile HALF MARATHON 516 2 71 F 237
693 222 SHAREN CAREY BIG SUR 03:33:42 03:32:41 16:14 min/mile HALF MARATHON 693 3 73 F 370
718 990 JANE WILLIAMS CARMEL VALLEY 03:45:01 03:44:00 17:05 min/mile HALF MARATHON 718 4 72 F 391
75 - 98
Race Place Bib Name City Gun Elapsed Chip Elapsed Pace Division Div Place Age Place Age Gender Gender Place
679 832 LISA SARGISSON CARMEL 03:28:40 03:27:30 15:50 min/mile HALF MARATHON 679 1 76 F 360

Race Info

Participants:
1009
Last Updated:
8/20/2017 5:23:41 PM

Results are preliminary for 5 days.
Click your name to view a video of you finishing.

Tip: Swipe the results table to view more.

Search for Name, Bib, City, State or Team
in the field above… by clicking the icon below…

Notes & Race Statistics

HALF MARATHON - 749


Male
Total Finishers Avg Pace
335 09:54

Female
Total Finishers Avg Pace
414 12:02
Timed using RM Timing Systems
Take control of your event
A product of US Sports Timing

Have a question or need to make a correction?

Submit a Result Correction